sensor_id;sensor_type;location;lat;lon;timestamp;P1;durP1;ratioP1;P2;durP2;ratioP2
209;SDS011;90;48.810;9.120;2022-08-19T00:01:16;27.50;;;19.40;;
209;SDS011;90;48.810;9.120;2022-08-19T00:03:43;29.00;;;18.97;;
209;SDS011;90;48.810;9.120;2022-08-19T00:06:10;26.90;;;17.77;;
209;SDS011;90;48.810;9.120;2022-08-19T00:08:37;30.83;;;19.37;;
209;SDS011;90;48.810;9.120;2022-08-19T00:11:04;29.37;;;19.50;;
209;SDS011;90;48.810;9.120;2022-08-19T00:13:32;26.93;;;18.83;;
209;SDS011;90;48.810;9.120;2022-08-19T00:16:02;31.73;;;20.03;;
209;SDS011;90;48.810;9.120;2022-08-19T00:18:30;30.00;;;19.00;;
209;SDS011;90;48.810;9.120;2022-08-19T00:20:57;26.90;;;18.43;;
209;SDS011;90;48.810;9.120;2022-08-19T00:23:25;29.17;;;20.30;;
209;SDS011;90;48.810;9.120;2022-08-19T00:25:53;27.53;;;18.00;;
209;SDS011;90;48.810;9.120;2022-08-19T00:28:20;27.83;;;19.00;;
209;SDS011;90;48.810;9.120;2022-08-19T00:30:47;31.87;;;20.00;;
209;SDS011;90;48.810;9.120;2022-08-19T00:33:18;30.00;;;17.57;;
209;SDS011;90;48.810;9.120;2022-08-19T00:35:45;31.67;;;19.27;;
209;SDS011;90;48.810;9.120;2022-08-19T00:38:12;32.50;;;20.03;;
209;SDS011;90;48.810;9.120;2022-08-19T00:40:39;30.63;;;19.13;;
209;SDS011;90;48.810;9.120;2022-08-19T00:43:09;29.53;;;18.60;;
209;SDS011;90;48.810;9.120;2022-08-19T00:45:38;31.77;;;20.47;;
209;SDS011;90;48.810;9.120;2022-08-19T00:48:08;32.00;;;19.87;;
209;SDS011;90;48.810;9.120;2022-08-19T00:50:37;37.67;;;19.73;;
209;SDS011;90;48.810;9.120;2022-08-19T00:53:08;28.40;;;18.50;;
209;SDS011;90;48.810;9.120;2022-08-19T00:55:35;31.20;;;18.93;;
209;SDS011;90;48.810;9.120;2022-08-19T00:58:05;29.27;;;18.63;;
209;SDS011;90;48.810;9.120;2022-08-19T01:00:35;27.27;;;17.60;;
209;SDS011;90;48.810;9.120;2022-08-19T01:03:03;31.23;;;19.63;;
209;SDS011;90;48.810;9.120;2022-08-19T01:05:32;24.93;;;17.43;;
209;SDS011;90;48.810;9.120;2022-08-19T01:08:03;30.67;;;18.90;;
209;SDS011;90;48.810;9.120;2022-08-19T01:10:32;32.73;;;21.20;;
209;SDS011;90;48.810;9.120;2022-08-19T01:13:03;29.30;;;19.63;;
209;SDS011;90;48.810;9.120;2022-08-19T01:15:31;32.40;;;20.40;;
209;SDS011;90;48.810;9.120;2022-08-19T01:18:03;36.63;;;19.50;;
209;SDS011;90;48.810;9.120;2022-08-19T01:20:33;34.97;;;20.33;;
209;SDS011;90;48.810;9.120;2022-08-19T01:23:02;33.23;;;20.23;;
209;SDS011;90;48.810;9.120;2022-08-19T01:25:31;27.80;;;18.70;;
209;SDS011;90;48.810;9.120;2022-08-19T01:28:02;33.40;;;22.47;;
209;SDS011;90;48.810;9.120;2022-08-19T01:30:30;30.47;;;18.50;;
209;SDS011;90;48.810;9.120;2022-08-19T01:33:00;29.50;;;19.33;;
209;SDS011;90;48.810;9.120;2022-08-19T01:35:30;30.43;;;19.87;;
209;SDS011;90;48.810;9.120;2022-08-19T01:40:36;32.53;;;21.27;;
209;SDS011;90;48.810;9.120;2022-08-19T01:43:05;29.80;;;20.40;;
209;SDS011;90;48.810;9.120;2022-08-19T01:45:33;34.70;;;21.20;;
209;SDS011;90;48.810;9.120;2022-08-19T01:48:01;35.13;;;22.50;;
209;SDS011;90;48.810;9.120;2022-08-19T01:50:31;33.87;;;20.57;;
209;SDS011;90;48.810;9.120;2022-08-19T01:53:00;33.43;;;22.00;;
209;SDS011;90;48.810;9.120;2022-08-19T01:55:30;34.30;;;21.00;;
209;SDS011;90;48.810;9.120;2022-08-19T01:58:00;35.37;;;21.27;;
209;SDS011;90;48.810;9.120;2022-08-19T02:00:32;36.20;;;22.40;;
209;SDS011;90;48.810;9.120;2022-08-19T02:03:01;34.70;;;22.73;;
209;SDS011;90;48.810;9.120;2022-08-19T02:05:36;36.00;;;21.60;;
209;SDS011;90;48.810;9.120;2022-08-19T02:08:04;33.43;;;20.67;;
209;SDS011;90;48.810;9.120;2022-08-19T02:10:33;34.70;;;21.80;;
209;SDS011;90;48.810;9.120;2022-08-19T02:13:08;38.37;;;22.80;;
209;SDS011;90;48.810;9.120;2022-08-19T02:15:36;33.13;;;21.00;;
209;SDS011;90;48.810;9.120;2022-08-19T02:18:03;37.73;;;23.20;;
209;SDS011;90;48.810;9.120;2022-08-19T02:20:36;45.93;;;23.03;;
209;SDS011;90;48.810;9.120;2022-08-19T02:23:04;42.87;;;24.10;;
209;SDS011;90;48.810;9.120;2022-08-19T02:25:33;38.10;;;23.03;;
209;SDS011;90;48.810;9.120;2022-08-19T02:28:01;38.50;;;23.70;;
209;SDS011;90;48.810;9.120;2022-08-19T02:30:29;36.77;;;22.97;;
209;SDS011;90;48.810;9.120;2022-08-19T02:32:56;41.97;;;24.50;;
209;SDS011;90;48.810;9.120;2022-08-19T02:35:24;43.10;;;24.70;;
209;SDS011;90;48.810;9.120;2022-08-19T02:37:54;39.35;;;23.48;;
209;SDS011;90;48.810;9.120;2022-08-19T02:40:39;43.20;;;24.70;;
209;SDS011;90;48.810;9.120;2022-08-19T02:43:08;36.33;;;22.83;;
209;SDS011;90;48.810;9.120;2022-08-19T02:45:36;45.97;;;25.07;;
209;SDS011;90;48.810;9.120;2022-08-19T02:48:04;46.93;;;25.73;;
209;SDS011;90;48.810;9.120;2022-08-19T02:50:32;35.60;;;22.50;;
209;SDS011;90;48.810;9.120;2022-08-19T02:53:00;38.77;;;23.33;;
209;SDS011;90;48.810;9.120;2022-08-19T02:55:27;38.60;;;24.90;;
209;SDS011;90;48.810;9.120;2022-08-19T02:57:56;60.57;;;24.10;;
209;SDS011;90;48.810;9.120;2022-08-19T03:00:25;42.20;;;25.63;;
209;SDS011;90;48.810;9.120;2022-08-19T03:02:52;42.10;;;25.37;;
209;SDS011;90;48.810;9.120;2022-08-19T03:05:21;44.43;;;25.40;;
209;SDS011;90;48.810;9.120;2022-08-19T03:07:51;38.77;;;24.50;;
209;SDS011;90;48.810;9.120;2022-08-19T03:10:20;44.43;;;25.37;;
209;SDS011;90;48.810;9.120;2022-08-19T03:12:48;40.27;;;24.37;;
209;SDS011;90;48.810;9.120;2022-08-19T03:15:19;43.60;;;25.10;;
209;SDS011;90;48.810;9.120;2022-08-19T03:17:46;45.17;;;24.10;;
209;SDS011;90;48.810;9.120;2022-08-19T03:20:13;38.57;;;24.17;;
209;SDS011;90;48.810;9.120;2022-08-19T03:22:41;43.80;;;26.53;;
209;SDS011;90;48.810;9.120;2022-08-19T03:25:08;43.93;;;24.53;;
209;SDS011;90;48.810;9.120;2022-08-19T03:27:37;45.23;;;28.10;;
209;SDS011;90;48.810;9.120;2022-08-19T03:30:04;45.73;;;26.60;;
209;SDS011;90;48.810;9.120;2022-08-19T03:32:34;43.13;;;26.93;;
209;SDS011;90;48.810;9.120;2022-08-19T03:35:01;40.60;;;25.57;;
209;SDS011;90;48.810;9.120;2022-08-19T03:37:30;44.20;;;27.87;;
209;SDS011;90;48.810;9.120;2022-08-19T03:39:57;52.60;;;29.50;;
209;SDS011;90;48.810;9.120;2022-08-19T03:42:24;47.53;;;26.40;;
209;SDS011;90;48.810;9.120;2022-08-19T03:44:52;48.93;;;29.00;;
209;SDS011;90;48.810;9.120;2022-08-19T03:47:19;49.47;;;28.83;;
209;SDS011;90;48.810;9.120;2022-08-19T03:49:47;44.55;;;27.92;;
209;SDS011;90;48.810;9.120;2022-08-19T03:52:15;49.50;;;29.17;;
209;SDS011;90;48.810;9.120;2022-08-19T03:54:42;54.57;;;30.17;;
209;SDS011;90;48.810;9.120;2022-08-19T03:57:10;52.53;;;29.47;;
209;SDS011;90;48.810;9.120;2022-08-19T03:59:37;50.73;;;29.73;;
209;SDS011;90;48.810;9.120;2022-08-19T04:02:06;49.53;;;29.40;;
209;SDS011;90;48.810;9.120;2022-08-19T04:04:35;57.77;;;31.20;;
209;SDS011;90;48.810;9.120;2022-08-19T04:07:05;44.77;;;28.07;;
209;SDS011;90;48.810;9.120;2022-08-19T04:09:33;51.27;;;30.07;;
209;SDS011;90;48.810;9.120;2022-08-19T04:12:01;50.47;;;30.40;;
209;SDS011;90;48.810;9.120;2022-08-19T04:14:31;47.83;;;29.43;;
209;SDS011;90;48.810;9.120;2022-08-19T04:16:59;52.80;;;28.40;;
209;SDS011;90;48.810;9.120;2022-08-19T04:19:30;62.93;;;32.00;;
209;SDS011;90;48.810;9.120;2022-08-19T04:21:57;49.27;;;29.70;;
209;SDS011;90;48.810;9.120;2022-08-19T04:24:26;49.97;;;29.43;;
209;SDS011;90;48.810;9.120;2022-08-19T04:26:53;52.10;;;30.50;;
209;SDS011;90;48.810;9.120;2022-08-19T04:29:21;52.80;;;31.73;;
209;SDS011;90;48.810;9.120;2022-08-19T04:31:52;51.87;;;28.93;;
209;SDS011;90;48.810;9.120;2022-08-19T04:34:21;48.37;;;30.30;;
209;SDS011;90;48.810;9.120;2022-08-19T04:36:50;52.73;;;32.40;;
209;SDS011;90;48.810;9.120;2022-08-19T04:39:19;50.90;;;31.30;;
209;SDS011;90;48.810;9.120;2022-08-19T04:42:09;52.97;;;31.37;;
209;SDS011;90;48.810;9.120;2022-08-19T04:44:55;57.50;;;32.07;;
209;SDS011;90;48.810;9.120;2022-08-19T04:47:23;55.20;;;29.80;;
209;SDS011;90;48.810;9.120;2022-08-19T04:49:50;53.97;;;32.00;;
209;SDS011;90;48.810;9.120;2022-08-19T04:52:17;55.30;;;31.37;;
209;SDS011;90;48.810;9.120;2022-08-19T04:54:44;46.00;;;28.60;;
209;SDS011;90;48.810;9.120;2022-08-19T04:57:13;49.30;;;30.43;;
209;SDS011;90;48.810;9.120;2022-08-19T04:59:40;51.97;;;30.83;;
209;SDS011;90;48.810;9.120;2022-08-19T05:02:07;49.90;;;30.10;;
209;SDS011;90;48.810;9.120;2022-08-19T05:04:36;56.63;;;31.57;;
209;SDS011;90;48.810;9.120;2022-08-19T05:07:04;48.90;;;30.77;;
209;SDS011;90;48.810;9.120;2022-08-19T05:09:31;51.30;;;29.60;;
209;SDS011;90;48.810;9.120;2022-08-19T05:11:59;53.97;;;31.43;;
209;SDS011;90;48.810;9.120;2022-08-19T05:14:27;46.83;;;28.80;;
209;SDS011;90;48.810;9.120;2022-08-19T05:16:55;50.63;;;30.80;;
209;SDS011;90;48.810;9.120;2022-08-19T05:19:22;52.47;;;31.07;;
209;SDS011;90;48.810;9.120;2022-08-19T05:22:07;54.03;;;31.40;;
209;SDS011;90;48.810;9.120;2022-08-19T05:24:51;56.33;;;33.57;;
209;SDS011;90;48.810;9.120;2022-08-19T05:27:18;54.90;;;29.77;;
209;SDS011;90;48.810;9.120;2022-08-19T05:29:49;51.97;;;30.97;;
209;SDS011;90;48.810;9.120;2022-08-19T05:32:16;55.80;;;30.60;;
209;SDS011;90;48.810;9.120;2022-08-19T05:34:44;51.60;;;30.40;;
209;SDS011;90;48.810;9.120;2022-08-19T05:37:11;45.83;;;28.00;;
209;SDS011;90;48.810;9.120;2022-08-19T05:39:42;51.43;;;29.50;;
209;SDS011;90;48.810;9.120;2022-08-19T05:42:10;53.07;;;30.53;;
209;SDS011;90;48.810;9.120;2022-08-19T05:44:39;50.17;;;30.37;;
209;SDS011;90;48.810;9.120;2022-08-19T05:47:11;53.13;;;30.83;;
209;SDS011;90;48.810;9.120;2022-08-19T05:49:40;51.70;;;29.43;;
209;SDS011;90;48.810;9.120;2022-08-19T05:52:08;48.20;;;31.07;;
209;SDS011;90;48.810;9.120;2022-08-19T05:54:40;49.00;;;28.67;;
209;SDS011;90;48.810;9.120;2022-08-19T05:57:08;53.10;;;31.30;;
209;SDS011;90;48.810;9.120;2022-08-19T05:59:36;49.77;;;29.70;;
209;SDS011;90;48.810;9.120;2022-08-19T06:02:03;48.67;;;28.47;;
209;SDS011;90;48.810;9.120;2022-08-19T06:04:37;47.47;;;29.53;;
209;SDS011;90;48.810;9.120;2022-08-19T06:07:07;49.10;;;28.33;;
209;SDS011;90;48.810;9.120;2022-08-19T06:09:35;45.63;;;29.27;;
209;SDS011;90;48.810;9.120;2022-08-19T06:12:02;50.23;;;29.47;;
209;SDS011;90;48.810;9.120;2022-08-19T06:14:32;48.10;;;29.87;;
209;SDS011;90;48.810;9.120;2022-08-19T06:17:01;52.07;;;30.20;;
209;SDS011;90;48.810;9.120;2022-08-19T06:19:29;53.40;;;30.77;;
209;SDS011;90;48.810;9.120;2022-08-19T06:21:59;51.20;;;30.60;;
209;SDS011;90;48.810;9.120;2022-08-19T06:24:27;45.00;;;27.37;;
209;SDS011;90;48.810;9.120;2022-08-19T06:26:57;52.03;;;30.33;;
209;SDS011;90;48.810;9.120;2022-08-19T06:29:28;52.70;;;30.03;;
209;SDS011;90;48.810;9.120;2022-08-19T06:31:59;50.53;;;31.17;;
209;SDS011;90;48.810;9.120;2022-08-19T06:34:27;48.28;;;30.42;;
209;SDS011;90;48.810;9.120;2022-08-19T06:36:57;45.73;;;29.80;;
209;SDS011;90;48.810;9.120;2022-08-19T06:39:28;51.83;;;30.87;;
209;SDS011;90;48.810;9.120;2022-08-19T06:41:58;47.20;;;29.60;;
209;SDS011;90;48.810;9.120;2022-08-19T06:44:28;46.20;;;29.17;;
209;SDS011;90;48.810;9.120;2022-08-19T06:47:01;50.90;;;30.43;;
209;SDS011;90;48.810;9.120;2022-08-19T06:49:29;47.90;;;29.97;;
209;SDS011;90;48.810;9.120;2022-08-19T06:51:58;41.30;;;24.73;;
209;SDS011;90;48.810;9.120;2022-08-19T06:54:27;36.73;;;22.60;;
209;SDS011;90;48.810;9.120;2022-08-19T06:56:55;45.30;;;26.70;;
209;SDS011;90;48.810;9.120;2022-08-19T06:59:24;44.73;;;27.27;;
209;SDS011;90;48.810;9.120;2022-08-19T07:01:53;47.70;;;29.40;;
209;SDS011;90;48.810;9.120;2022-08-19T07:04:22;41.77;;;26.90;;
209;SDS011;90;48.810;9.120;2022-08-19T07:06:56;54.33;;;30.10;;
209;SDS011;90;48.810;9.120;2022-08-19T07:09:27;53.70;;;30.13;;
209;SDS011;90;48.810;9.120;2022-08-19T07:11:55;46.33;;;28.10;;
209;SDS011;90;48.810;9.120;2022-08-19T07:14:23;48.93;;;30.63;;
209;SDS011;90;48.810;9.120;2022-08-19T07:16:53;48.50;;;28.73;;
209;SDS011;90;48.810;9.120;2022-08-19T07:19:22;50.77;;;29.87;;
209;SDS011;90;48.810;9.120;2022-08-19T07:21:51;51.70;;;28.07;;
209;SDS011;90;48.810;9.120;2022-08-19T07:24:20;52.53;;;29.23;;
209;SDS011;90;48.810;9.120;2022-08-19T07:26:50;46.43;;;28.00;;
209;SDS011;90;48.810;9.120;2022-08-19T07:29:19;45.77;;;28.57;;
209;SDS011;90;48.810;9.120;2022-08-19T07:31:48;51.90;;;28.60;;
209;SDS011;90;48.810;9.120;2022-08-19T07:34:15;41.40;;;26.10;;
209;SDS011;90;48.810;9.120;2022-08-19T07:36:43;41.10;;;25.70;;
209;SDS011;90;48.810;9.120;2022-08-19T07:39:12;42.10;;;25.60;;
209;SDS011;90;48.810;9.120;2022-08-19T07:41:43;44.00;;;26.13;;
209;SDS011;90;48.810;9.120;2022-08-19T07:44:11;43.53;;;27.57;;
209;SDS011;90;48.810;9.120;2022-08-19T07:46:40;44.55;;;27.80;;
209;SDS011;90;48.810;9.120;2022-08-19T07:49:12;47.27;;;28.67;;
209;SDS011;90;48.810;9.120;2022-08-19T07:51:44;42.63;;;27.27;;
209;SDS011;90;48.810;9.120;2022-08-19T07:54:12;48.90;;;26.43;;
209;SDS011;90;48.810;9.120;2022-08-19T07:56:40;44.83;;;27.90;;
209;SDS011;90;48.810;9.120;2022-08-19T07:59:08;51.93;;;27.10;;
209;SDS011;90;48.810;9.120;2022-08-19T08:01:37;45.87;;;26.67;;
209;SDS011;90;48.810;9.120;2022-08-19T08:04:06;50.93;;;28.13;;
209;SDS011;90;48.810;9.120;2022-08-19T08:06:51;43.87;;;26.30;;
209;SDS011;90;48.810;9.120;2022-08-19T08:09:39;43.83;;;25.80;;
209;SDS011;90;48.810;9.120;2022-08-19T08:12:09;46.03;;;25.33;;
209;SDS011;90;48.810;9.120;2022-08-19T08:14:41;40.23;;;25.37;;
209;SDS011;90;48.810;9.120;2022-08-19T08:17:11;44.80;;;26.77;;
209;SDS011;90;48.810;9.120;2022-08-19T08:19:39;39.60;;;26.17;;
209;SDS011;90;48.810;9.120;2022-08-19T08:22:09;35.73;;;24.30;;
209;SDS011;90;48.810;9.120;2022-08-19T08:24:56;37.00;;;24.50;;
209;SDS011;90;48.810;9.120;2022-08-19T08:27:28;37.83;;;25.40;;
209;SDS011;90;48.810;9.120;2022-08-19T08:29:57;43.23;;;25.57;;
209;SDS011;90;48.810;9.120;2022-08-19T08:32:24;40.83;;;26.00;;
209;SDS011;90;48.810;9.120;2022-08-19T08:34:51;39.60;;;26.40;;
209;SDS011;90;48.810;9.120;2022-08-19T08:37:19;36.17;;;23.13;;
209;SDS011;90;48.810;9.120;2022-08-19T08:39:47;42.23;;;26.50;;
209;SDS011;90;48.810;9.120;2022-08-19T08:42:17;41.70;;;25.20;;
209;SDS011;90;48.810;9.120;2022-08-19T08:44:53;39.33;;;25.87;;
209;SDS011;90;48.810;9.120;2022-08-19T08:47:26;39.23;;;24.83;;
209;SDS011;90;48.810;9.120;2022-08-19T08:50:03;36.70;;;25.13;;
209;SDS011;90;48.810;9.120;2022-08-19T08:52:33;35.97;;;24.30;;
209;SDS011;90;48.810;9.120;2022-08-19T08:55:05;38.63;;;25.00;;
209;SDS011;90;48.810;9.120;2022-08-19T08:57:39;38.37;;;26.13;;
209;SDS011;90;48.810;9.120;2022-08-19T09:00:17;37.87;;;24.53;;
209;SDS011;90;48.810;9.120;2022-08-19T09:02:48;44.43;;;26.33;;
209;SDS011;90;48.810;9.120;2022-08-19T09:05:15;40.73;;;25.93;;
209;SDS011;90;48.810;9.120;2022-08-19T09:07:51;38.83;;;24.80;;
209;SDS011;90;48.810;9.120;2022-08-19T09:10:26;41.87;;;24.50;;
209;SDS011;90;48.810;9.120;2022-08-19T09:13:00;42.87;;;25.80;;
209;SDS011;90;48.810;9.120;2022-08-19T09:15:34;37.80;;;23.57;;
209;SDS011;90;48.810;9.120;2022-08-19T09:18:08;43.20;;;25.00;;
209;SDS011;90;48.810;9.120;2022-08-19T09:20:38;38.50;;;24.90;;
209;SDS011;90;48.810;9.120;2022-08-19T09:23:05;38.17;;;23.30;;
209;SDS011;90;48.810;9.120;2022-08-19T09:25:33;36.90;;;24.20;;
209;SDS011;90;48.810;9.120;2022-08-19T09:28:02;36.20;;;25.63;;
209;SDS011;90;48.810;9.120;2022-08-19T09:30:32;40.97;;;24.55;;
209;SDS011;90;48.810;9.120;2022-08-19T09:33:04;38.43;;;24.50;;
209;SDS011;90;48.810;9.120;2022-08-19T09:35:33;39.70;;;24.47;;
209;SDS011;90;48.810;9.120;2022-08-19T09:38:01;37.30;;;23.47;;
209;SDS011;90;48.810;9.120;2022-08-19T09:40:29;36.03;;;22.97;;
209;SDS011;90;48.810;9.120;2022-08-19T09:42:59;35.03;;;23.67;;
209;SDS011;90;48.810;9.120;2022-08-19T09:45:27;31.93;;;22.50;;
209;SDS011;90;48.810;9.120;2022-08-19T09:47:58;34.70;;;22.23;;
209;SDS011;90;48.810;9.120;2022-08-19T09:50:25;31.77;;;21.00;;
209;SDS011;90;48.810;9.120;2022-08-19T09:52:54;39.37;;;22.63;;
209;SDS011;90;48.810;9.120;2022-08-19T09:55:22;30.13;;;21.60;;
209;SDS011;90;48.810;9.120;2022-08-19T09:57:49;35.03;;;20.70;;
209;SDS011;90;48.810;9.120;2022-08-19T10:00:19;35.60;;;20.80;;
209;SDS011;90;48.810;9.120;2022-08-19T10:02:50;28.27;;;19.63;;
209;SDS011;90;48.810;9.120;2022-08-19T10:05:19;27.77;;;18.87;;
209;SDS011;90;48.810;9.120;2022-08-19T10:08:05;29.47;;;21.57;;
209;SDS011;90;48.810;9.120;2022-08-19T10:10:37;27.10;;;19.70;;
209;SDS011;90;48.810;9.120;2022-08-19T10:13:04;29.70;;;21.00;;
209;SDS011;90;48.810;9.120;2022-08-19T10:15:32;33.80;;;21.03;;
209;SDS011;90;48.810;9.120;2022-08-19T10:18:04;31.40;;;20.27;;
209;SDS011;90;48.810;9.120;2022-08-19T10:20:31;31.60;;;20.00;;
209;SDS011;90;48.810;9.120;2022-08-19T10:23:00;32.70;;;22.03;;
209;SDS011;90;48.810;9.120;2022-08-19T10:25:29;31.20;;;20.10;;
209;SDS011;90;48.810;9.120;2022-08-19T10:27:58;29.03;;;19.90;;
209;SDS011;90;48.810;9.120;2022-08-19T10:30:26;33.23;;;21.03;;
209;SDS011;90;48.810;9.120;2022-08-19T10:32:53;27.97;;;18.90;;
209;SDS011;90;48.810;9.120;2022-08-19T10:35:20;26.67;;;18.60;;
209;SDS011;90;48.810;9.120;2022-08-19T10:37:48;30.60;;;19.90;;
209;SDS011;90;48.810;9.120;2022-08-19T10:40:15;29.87;;;20.23;;
209;SDS011;90;48.810;9.120;2022-08-19T10:42:43;33.42;;;18.30;;
209;SDS011;90;48.810;9.120;2022-08-19T10:45:10;23.43;;;17.40;;
209;SDS011;90;48.810;9.120;2022-08-19T10:47:38;40.67;;;18.87;;
209;SDS011;90;48.810;9.120;2022-08-19T10:50:07;28.57;;;19.30;;
209;SDS011;90;48.810;9.120;2022-08-19T10:52:52;24.33;;;18.00;;
209;SDS011;90;48.810;9.120;2022-08-19T10:55:20;27.10;;;18.27;;
209;SDS011;90;48.810;9.120;2022-08-19T10:58:11;25.63;;;18.03;;
209;SDS011;90;48.810;9.120;2022-08-19T11:00:39;21.80;;;16.57;;
209;SDS011;90;48.810;9.120;2022-08-19T11:03:07;19.83;;;15.27;;
209;SDS011;90;48.810;9.120;2022-08-19T11:05:34;24.17;;;16.60;;
209;SDS011;90;48.810;9.120;2022-08-19T11:08:02;25.60;;;18.47;;
209;SDS011;90;48.810;9.120;2022-08-19T11:10:30;30.73;;;17.60;;
209;SDS011;90;48.810;9.120;2022-08-19T11:12:58;22.43;;;17.00;;
209;SDS011;90;48.810;9.120;2022-08-19T11:15:28;22.57;;;17.33;;
209;SDS011;90;48.810;9.120;2022-08-19T11:17:57;25.93;;;18.47;;
209;SDS011;90;48.810;9.120;2022-08-19T11:20:26;24.43;;;17.30;;
209;SDS011;90;48.810;9.120;2022-08-19T11:22:55;22.80;;;17.17;;
209;SDS011;90;48.810;9.120;2022-08-19T11:25:22;20.90;;;16.20;;
209;SDS011;90;48.810;9.120;2022-08-19T11:27:49;23.10;;;16.27;;
209;SDS011;90;48.810;9.120;2022-08-19T11:30:17;23.50;;;16.60;;
209;SDS011;90;48.810;9.120;2022-08-19T11:32:45;19.37;;;15.17;;
209;SDS011;90;48.810;9.120;2022-08-19T11:35:13;28.43;;;16.00;;
209;SDS011;90;48.810;9.120;2022-08-19T11:37:40;22.57;;;15.27;;
209;SDS011;90;48.810;9.120;2022-08-19T11:40:08;20.27;;;16.60;;
209;SDS011;90;48.810;9.120;2022-08-19T11:42:36;21.60;;;16.47;;
209;SDS011;90;48.810;9.120;2022-08-19T11:45:21;18.33;;;13.33;;
209;SDS011;90;48.810;9.120;2022-08-19T11:47:50;18.57;;;15.37;;
209;SDS011;90;48.810;9.120;2022-08-19T11:50:17;17.53;;;14.53;;
209;SDS011;90;48.810;9.120;2022-08-19T11:52:45;20.83;;;15.63;;
209;SDS011;90;48.810;9.120;2022-08-19T11:55:12;21.20;;;16.07;;
209;SDS011;90;48.810;9.120;2022-08-19T11:57:41;17.13;;;15.43;;
209;SDS011;90;48.810;9.120;2022-08-19T12:00:09;25.83;;;15.30;;
209;SDS011;90;48.810;9.120;2022-08-19T12:02:40;23.13;;;16.70;;
209;SDS011;90;48.810;9.120;2022-08-19T12:05:09;26.10;;;15.10;;
209;SDS011;90;48.810;9.120;2022-08-19T12:07:36;27.77;;;16.20;;
209;SDS011;90;48.810;9.120;2022-08-19T12:10:05;23.37;;;14.70;;
209;SDS011;90;48.810;9.120;2022-08-19T12:12:33;19.10;;;15.10;;
209;SDS011;90;48.810;9.120;2022-08-19T12:15:05;16.53;;;14.37;;
209;SDS011;90;48.810;9.120;2022-08-19T12:17:33;19.77;;;14.73;;
209;SDS011;90;48.810;9.120;2022-08-19T12:20:01;16.23;;;13.97;;
209;SDS011;90;48.810;9.120;2022-08-19T12:22:32;21.65;;;14.40;;
209;SDS011;90;48.810;9.120;2022-08-19T12:25:03;17.73;;;14.20;;
209;SDS011;90;48.810;9.120;2022-08-19T12:27:31;16.53;;;14.20;;
209;SDS011;90;48.810;9.120;2022-08-19T12:29:58;16.90;;;13.57;;
209;SDS011;90;48.810;9.120;2022-08-19T12:32:26;18.27;;;13.80;;
209;SDS011;90;48.810;9.120;2022-08-19T12:34:54;17.90;;;14.30;;
209;SDS011;90;48.810;9.120;2022-08-19T12:37:21;19.55;;;13.75;;
209;SDS011;90;48.810;9.120;2022-08-19T12:39:50;16.70;;;13.53;;
209;SDS011;90;48.810;9.120;2022-08-19T12:42:17;16.63;;;13.20;;
209;SDS011;90;48.810;9.120;2022-08-19T12:44:47;14.33;;;12.77;;
209;SDS011;90;48.810;9.120;2022-08-19T12:47:14;16.37;;;13.93;;
209;SDS011;90;48.810;9.120;2022-08-19T12:49:42;19.10;;;12.87;;
209;SDS011;90;48.810;9.120;2022-08-19T12:52:10;24.53;;;13.10;;
209;SDS011;90;48.810;9.120;2022-08-19T12:54:40;20.10;;;13.40;;
209;SDS011;90;48.810;9.120;2022-08-19T12:57:10;15.03;;;12.63;;
209;SDS011;90;48.810;9.120;2022-08-19T12:59:38;13.93;;;12.27;;
209;SDS011;90;48.810;9.120;2022-08-19T13:02:06;16.30;;;12.37;;
209;SDS011;90;48.810;9.120;2022-08-19T13:04:34;13.27;;;12.57;;
209;SDS011;90;48.810;9.120;2022-08-19T13:07:05;14.70;;;12.63;;
209;SDS011;90;48.810;9.120;2022-08-19T13:09:34;13.00;;;11.63;;
209;SDS011;90;48.810;9.120;2022-08-19T13:12:01;12.27;;;11.67;;
209;SDS011;90;48.810;9.120;2022-08-19T13:14:44;21.60;;;12.93;;
209;SDS011;90;48.810;9.120;2022-08-19T13:17:16;14.57;;;12.23;;
209;SDS011;90;48.810;9.120;2022-08-19T13:19:43;13.50;;;11.17;;
209;SDS011;90;48.810;9.120;2022-08-19T13:22:10;14.53;;;12.10;;
209;SDS011;90;48.810;9.120;2022-08-19T13:24:38;16.60;;;12.20;;
209;SDS011;90;48.810;9.120;2022-08-19T13:27:05;16.17;;;12.67;;
209;SDS011;90;48.810;9.120;2022-08-19T13:29:33;14.33;;;12.67;;
209;SDS011;90;48.810;9.120;2022-08-19T13:32:35;15.40;;;12.77;;
209;SDS011;90;48.810;9.120;2022-08-19T13:35:21;12.53;;;11.87;;
209;SDS011;90;48.810;9.120;2022-08-19T13:37:48;15.53;;;13.30;;
209;SDS011;90;48.810;9.120;2022-08-19T13:40:19;12.20;;;11.50;;
209;SDS011;90;48.810;9.120;2022-08-19T13:42:49;15.50;;;12.40;;
209;SDS011;90;48.810;9.120;2022-08-19T13:45:19;16.00;;;13.30;;
209;SDS011;90;48.810;9.120;2022-08-19T13:47:49;13.73;;;12.67;;
209;SDS011;90;48.810;9.120;2022-08-19T13:50:19;16.50;;;12.60;;
209;SDS011;90;48.810;9.120;2022-08-19T13:52:51;22.50;;;15.50;;
209;SDS011;90;48.810;9.120;2022-08-19T13:55:21;22.90;;;18.20;;
209;SDS011;90;48.810;9.120;2022-08-19T13:57:50;25.60;;;19.43;;
209;SDS011;90;48.810;9.120;2022-08-19T14:00:19;25.80;;;19.90;;
209;SDS011;90;48.810;9.120;2022-08-19T14:02:50;29.57;;;20.07;;
209;SDS011;90;48.810;9.120;2022-08-19T14:05:18;25.80;;;20.17;;
209;SDS011;90;48.810;9.120;2022-08-19T14:07:46;28.60;;;21.00;;
209;SDS011;90;48.810;9.120;2022-08-19T14:10:15;29.17;;;21.40;;
209;SDS011;90;48.810;9.120;2022-08-19T14:12:46;33.20;;;21.13;;
209;SDS011;90;48.810;9.120;2022-08-19T14:15:14;31.30;;;19.30;;
209;SDS011;90;48.810;9.120;2022-08-19T14:17:45;22.50;;;18.43;;
209;SDS011;90;48.810;9.120;2022-08-19T14:20:15;27.33;;;20.00;;
209;SDS011;90;48.810;9.120;2022-08-19T14:22:44;28.60;;;20.10;;
209;SDS011;90;48.810;9.120;2022-08-19T14:25:13;23.10;;;18.83;;
209;SDS011;90;48.810;9.120;2022-08-19T14:27:42;31.33;;;19.90;;
209;SDS011;90;48.810;9.120;2022-08-19T14:30:11;27.60;;;20.37;;
209;SDS011;90;48.810;9.120;2022-08-19T14:32:39;31.57;;;22.60;;
209;SDS011;90;48.810;9.120;2022-08-19T14:35:09;31.63;;;21.13;;
209;SDS011;90;48.810;9.120;2022-08-19T14:37:41;29.90;;;22.00;;
209;SDS011;90;48.810;9.120;2022-08-19T14:40:09;26.83;;;20.17;;
209;SDS011;90;48.810;9.120;2022-08-19T14:42:37;27.60;;;19.73;;
209;SDS011;90;48.810;9.120;2022-08-19T14:45:06;22.80;;;19.07;;
209;SDS011;90;48.810;9.120;2022-08-19T14:47:36;25.87;;;19.13;;
209;SDS011;90;48.810;9.120;2022-08-19T14:50:05;26.20;;;19.93;;
209;SDS011;90;48.810;9.120;2022-08-19T14:52:33;24.67;;;17.83;;
209;SDS011;90;48.810;9.120;2022-08-19T14:55:04;22.87;;;18.53;;
209;SDS011;90;48.810;9.120;2022-08-19T14:57:37;24.13;;;19.13;;
209;SDS011;90;48.810;9.120;2022-08-19T15:00:07;22.10;;;17.70;;
209;SDS011;90;48.810;9.120;2022-08-19T15:02:38;25.33;;;19.07;;
209;SDS011;90;48.810;9.120;2022-08-19T15:05:06;27.57;;;19.90;;
209;SDS011;90;48.810;9.120;2022-08-19T15:07:35;24.47;;;17.97;;
209;SDS011;90;48.810;9.120;2022-08-19T15:10:05;22.37;;;17.27;;
209;SDS011;90;48.810;9.120;2022-08-19T15:12:34;24.83;;;17.90;;
209;SDS011;90;48.810;9.120;2022-08-19T15:15:03;20.70;;;17.00;;
209;SDS011;90;48.810;9.120;2022-08-19T15:17:31;24.37;;;18.20;;
209;SDS011;90;48.810;9.120;2022-08-19T15:19:58;24.00;;;16.90;;
209;SDS011;90;48.810;9.120;2022-08-19T15:22:25;21.97;;;17.30;;
209;SDS011;90;48.810;9.120;2022-08-19T15:24:52;23.53;;;18.10;;
209;SDS011;90;48.810;9.120;2022-08-19T15:27:20;22.53;;;16.73;;
209;SDS011;90;48.810;9.120;2022-08-19T15:29:47;23.97;;;16.03;;
209;SDS011;90;48.810;9.120;2022-08-19T15:32:14;20.13;;;16.80;;
209;SDS011;90;48.810;9.120;2022-08-19T15:34:41;19.03;;;16.43;;
209;SDS011;90;48.810;9.120;2022-08-19T15:37:08;21.70;;;16.20;;
209;SDS011;90;48.810;9.120;2022-08-19T15:39:35;23.43;;;15.83;;
209;SDS011;90;48.810;9.120;2022-08-19T15:42:03;22.23;;;17.53;;
209;SDS011;90;48.810;9.120;2022-08-19T15:44:32;21.80;;;17.30;;
209;SDS011;90;48.810;9.120;2022-08-19T15:46:59;27.73;;;18.90;;